createdAt,value
2017-09-04T00:00:28.994Z,1003.47
2017-09-04T00:01:29.013Z,1003.48
2017-09-04T00:02:29.034Z,1003.49
2017-09-04T00:03:29.054Z,1003.51
2017-09-04T00:04:29.073Z,1003.43
2017-09-04T00:05:29.093Z,1003.46
2017-09-04T00:06:29.115Z,1003.49
2017-09-04T00:07:29.134Z,1003.48
2017-09-04T00:08:29.152Z,1003.48
2017-09-04T00:09:29.174Z,1003.49
2017-09-04T00:10:29.194Z,1003.52
2017-09-04T00:11:29.218Z,1003.51
2017-09-04T00:12:29.237Z,1003.52
2017-09-04T00:13:29.255Z,1003.49
2017-09-04T00:14:29.272Z,1003.49
2017-09-04T00:15:29.291Z,1003.49
2017-09-04T00:16:29.311Z,1003.52
2017-09-04T00:17:29.331Z,1003.48
2017-09-04T00:18:29.352Z,1003.5
2017-09-04T00:19:29.370Z,1003.49
2017-09-04T00:20:29.390Z,1003.46
2017-09-04T00:21:29.415Z,1003.46
2017-09-04T00:22:29.432Z,1003.44
2017-09-04T00:23:29.450Z,1003.44
2017-09-04T00:24:29.469Z,1003.41
2017-09-04T00:25:29.489Z,1003.41
2017-09-04T00:26:29.509Z,1003.4
2017-09-04T00:27:29.529Z,1003.37
2017-09-04T00:28:29.607Z,1003.37
2017-09-04T00:29:29.570Z,1003.38
2017-09-04T00:30:29.588Z,1003.34
2017-09-04T00:31:29.610Z,1003.33
2017-09-04T00:32:29.627Z,1003.34
2017-09-04T00:33:29.649Z,1003.35
2017-09-04T00:34:29.668Z,1003.38
2017-09-04T00:35:29.688Z,1003.35
2017-09-04T00:36:29.708Z,1003.37
2017-09-04T00:37:29.728Z,1003.34
2017-09-04T00:38:29.747Z,1003.36
2017-09-04T00:39:29.767Z,1003.33
2017-09-04T00:40:29.787Z,1003.37
2017-09-04T00:41:29.807Z,1003.35
2017-09-04T00:42:29.827Z,1003.38
2017-09-04T00:43:29.846Z,1003.36
2017-09-04T00:44:29.867Z,1003.37
2017-09-04T00:45:29.885Z,1003.33
2017-09-04T00:46:29.906Z,1003.33
2017-09-04T00:47:29.925Z,1003.37
2017-09-04T00:48:29.944Z,1003.37
2017-09-04T00:49:29.964Z,1003.37
2017-09-04T00:50:29.984Z,1003.38
2017-09-04T00:51:30.004Z,1003.36
2017-09-04T00:52:30.023Z,1003.37
2017-09-04T00:53:30.044Z,1003.38
2017-09-04T00:54:30.062Z,1003.36
2017-09-04T00:55:30.082Z,1003.34
2017-09-04T00:56:30.101Z,1003.35
2017-09-04T00:57:30.121Z,1003.36
2017-09-04T00:58:30.148Z,1003.35
2017-09-04T00:59:30.180Z,1003.34
2017-09-04T01:00:30.180Z,1003.35
2017-09-04T01:01:30.199Z,1003.35
2017-09-04T01:02:30.220Z,1003.31
2017-09-04T01:03:30.239Z,1003.36
2017-09-04T01:04:30.259Z,1003.36
2017-09-04T01:05:30.279Z,1003.3
2017-09-04T01:06:30.299Z,1003.31
2017-09-04T01:07:30.318Z,1003.33
2017-09-04T01:08:30.338Z,1003.31
2017-09-04T01:09:30.358Z,1003.28
2017-09-04T01:10:30.397Z,1003.31
2017-09-04T01:11:30.396Z,1003.25
2017-09-04T01:12:30.416Z,1003.29
2017-09-04T01:13:30.436Z,1003.27
2017-09-04T01:14:30.457Z,1003.26
2017-09-04T01:15:30.475Z,1003.21
2017-09-04T01:16:30.494Z,1003.24
2017-09-04T01:17:30.514Z,1003.21
2017-09-04T01:18:30.533Z,1003.22
2017-09-04T01:19:30.554Z,1003.22
2017-09-04T01:20:30.572Z,1003.22
2017-09-04T01:21:30.590Z,1003.24
2017-09-04T01:22:30.609Z,1003.21
2017-09-04T01:23:30.631Z,1003.25
2017-09-04T01:24:30.650Z,1003.24
2017-09-04T01:25:30.671Z,1003.25
2017-09-04T01:26:30.694Z,1003.23
2017-09-04T01:27:30.708Z,1003.23
2017-09-04T01:28:30.827Z,1003.25
2017-09-04T01:29:30.748Z,1003.22
2017-09-04T01:30:30.767Z,1003.28
2017-09-04T01:31:30.786Z,1003.25
2017-09-04T01:32:30.805Z,1003.29
2017-09-04T01:33:30.826Z,1003.28
2017-09-04T01:34:30.844Z,1003.26
2017-09-04T01:35:30.864Z,1003.28
2017-09-04T01:36:30.888Z,1003.27
2017-09-04T01:37:30.902Z,1003.27
2017-09-04T01:38:30.922Z,1003.26
2017-09-04T01:39:30.941Z,1003.24
2017-09-04T01:40:30.960Z,1003.29
2017-09-04T01:41:30.981Z,1003.26
2017-09-04T01:42:30.999Z,1003.24
2017-09-04T01:43:31.018Z,1003.22
2017-09-04T01:44:31.037Z,1003.27
2017-09-04T01:45:31.058Z,1003.31
2017-09-04T01:46:31.077Z,1003.27
2017-09-04T01:47:31.096Z,1003.25
2017-09-04T01:48:31.116Z,1003.29
2017-09-04T01:49:31.135Z,1003.3
2017-09-04T01:50:31.154Z,1003.31
2017-09-04T01:51:31.172Z,1003.32
2017-09-04T01:52:31.192Z,1003.32
2017-09-04T01:53:31.217Z,1003.3
2017-09-04T01:54:31.230Z,1003.33
2017-09-04T01:55:31.251Z,1003.36
2017-09-04T01:56:31.269Z,1003.31
2017-09-04T01:57:31.288Z,1003.28
2017-09-04T01:58:31.373Z,1003.28
2017-09-04T01:59:31.327Z,1003.23
2017-09-04T02:00:31.347Z,1003.22
2017-09-04T02:01:31.365Z,1003.24
2017-09-04T02:02:31.384Z,1003.25
2017-09-04T02:03:31.404Z,1003.21
2017-09-04T02:04:31.425Z,1003.22
2017-09-04T02:05:31.444Z,1003.26
2017-09-04T02:06:31.461Z,1003.23
2017-09-04T02:07:31.482Z,1003.25
2017-09-04T02:08:31.502Z,1003.22
2017-09-04T02:09:31.519Z,1003.22
2017-09-04T02:10:31.539Z,1003.2
2017-09-04T02:11:31.569Z,1003.25
2017-09-04T02:12:31.580Z,1003.25
2017-09-04T02:13:31.596Z,1003.29
2017-09-04T02:14:31.616Z,1003.25
2017-09-04T02:15:31.636Z,1003.27
2017-09-04T02:16:31.653Z,1003.23
2017-09-04T02:17:31.675Z,1003.26
2017-09-04T02:18:31.692Z,1003.23
2017-09-04T02:19:31.711Z,1003.21
2017-09-04T02:20:31.730Z,1003.26
2017-09-04T02:21:31.748Z,1003.21
2017-09-04T02:22:31.770Z,1003.22
2017-09-04T02:23:31.788Z,1003.24
2017-09-04T02:24:31.807Z,1003.22
2017-09-04T02:25:31.826Z,1003.22
2017-09-04T02:26:31.845Z,1003.21
2017-09-04T02:27:31.864Z,1003.22
2017-09-04T02:28:31.883Z,1003.2
2017-09-04T02:29:31.903Z,1003.25
2017-09-04T02:30:31.922Z,1003.24
2017-09-04T02:31:31.940Z,1003.29
2017-09-04T02:32:31.959Z,1003.31
2017-09-04T02:33:31.978Z,1003.3
2017-09-04T02:34:31.998Z,1003.28
2017-09-04T02:35:32.076Z,1003.29
2017-09-04T02:36:32.036Z,1003.31
2017-09-04T02:37:32.055Z,1003.29
2017-09-04T02:38:32.074Z,1003.32
2017-09-04T02:39:32.094Z,1003.3
2017-09-04T02:40:32.112Z,1003.31
2017-09-04T02:41:32.131Z,1003.32
2017-09-04T02:42:32.151Z,1003.33
2017-09-04T02:43:32.171Z,1003.29
2017-09-04T02:44:32.190Z,1003.29
2017-09-04T02:45:32.209Z,1003.28
2017-09-04T02:46:32.228Z,1003.29
2017-09-04T02:47:32.246Z,1003.27
2017-09-04T02:48:32.266Z,1003.29
2017-09-04T02:49:32.283Z,1003.28
2017-09-04T02:50:32.304Z,1003.3
2017-09-04T02:51:32.322Z,1003.3
2017-09-04T02:52:32.342Z,1003.28
2017-09-04T02:53:32.362Z,1003.28
2017-09-04T02:54:32.380Z,1003.3
2017-09-04T02:55:32.511Z,1003.26
2017-09-04T02:56:32.417Z,1003.25
2017-09-04T02:57:32.549Z,1003.26
2017-09-04T02:58:32.548Z,1003.26
2017-09-04T02:59:32.574Z,1003.27
2017-09-04T03:00:32.563Z,1003.27
2017-09-04T03:01:32.561Z,1003.26
2017-09-04T03:02:32.561Z,1003.24
2017-09-04T03:03:32.559Z,1003.29
2017-09-04T03:04:32.579Z,1003.25
2017-09-04T03:05:32.700Z,1003.29
2017-09-04T03:06:32.699Z,1003.29
2017-09-04T03:07:32.724Z,1003.26
2017-09-04T03:08:32.725Z,1003.27
2017-09-04T03:09:32.721Z,1003.28
2017-09-04T03:10:32.732Z,1003.28
2017-09-04T03:11:32.770Z,1003.27
2017-09-04T03:12:32.768Z,1003.27
2017-09-04T03:13:32.769Z,1003.28
2017-09-04T03:14:32.766Z,1003.24
2017-09-04T03:15:32.778Z,1003.28
2017-09-04T03:16:32.795Z,1003.27
2017-09-04T03:17:32.821Z,1003.27
2017-09-04T03:18:32.835Z,1003.29
2017-09-04T03:19:32.851Z,1003.28
2017-09-04T03:20:32.871Z,1003.29
2017-09-04T03:21:32.890Z,1003.31
2017-09-04T03:22:32.915Z,1003.26
2017-09-04T03:23:32.927Z,1003.26
2017-09-04T03:24:32.947Z,1003.27
2017-09-04T03:25:32.972Z,1003.28
2017-09-04T03:26:32.984Z,1003.27
2017-09-04T03:27:33.004Z,1003.25
2017-09-04T03:28:33.023Z,1003.22
2017-09-04T03:29:33.042Z,1003.2
2017-09-04T03:30:33.060Z,1003.19
2017-09-04T03:31:33.078Z,1003.2
2017-09-04T03:32:33.098Z,1003.21
2017-09-04T03:33:33.117Z,1003.19
2017-09-04T03:34:33.135Z,1003.2
2017-09-04T03:35:33.154Z,1003.2
2017-09-04T03:36:33.172Z,1003.21
2017-09-04T03:37:33.190Z,1003.24
2017-09-04T03:38:33.212Z,1003.22
2017-09-04T03:39:33.229Z,1003.2
2017-09-04T03:40:33.248Z,1003.23
2017-09-04T03:41:33.266Z,1003.23
2017-09-04T03:42:33.287Z,1003.22
2017-09-04T03:43:33.305Z,1003.26
2017-09-04T03:44:33.321Z,1003.23
2017-09-04T03:45:33.340Z,1003.23
2017-09-04T03:46:33.361Z,1003.28
2017-09-04T03:47:33.378Z,1003.28
2017-09-04T03:48:33.397Z,1003.27
2017-09-04T03:49:33.419Z,1003.25
2017-09-04T03:50:33.434Z,1003.26
2017-09-04T03:51:33.452Z,1003.28
2017-09-04T03:52:33.473Z,1003.27
2017-09-04T03:53:33.496Z,1003.27
2017-09-04T03:54:33.510Z,1003.28
2017-09-04T03:55:33.527Z,1003.28
2017-09-04T03:56:33.547Z,1003.29
2017-09-04T03:57:33.566Z,1003.32
2017-09-04T03:58:33.583Z,1003.3
2017-09-04T03:59:33.643Z,1003.29
2017-09-04T04:00:33.622Z,1003.36
2017-09-04T04:01:33.640Z,1003.33
2017-09-04T04:02:33.658Z,1003.34
2017-09-04T04:03:33.677Z,1003.3
2017-09-04T04:04:33.696Z,1003.34
2017-09-04T04:05:33.717Z,1003.32
2017-09-04T04:06:33.734Z,1003.38
2017-09-04T04:07:33.753Z,1003.34
2017-09-04T04:08:33.771Z,1003.33
2017-09-04T04:09:33.789Z,1003.33
2017-09-04T04:10:33.806Z,1003.29
2017-09-04T04:11:33.826Z,1003.3
2017-09-04T04:12:33.846Z,1003.31
2017-09-04T04:13:33.865Z,1003.31
2017-09-04T04:14:33.883Z,1003.29
2017-09-04T04:15:33.901Z,1003.28
2017-09-04T04:16:33.920Z,1003.28
2017-09-04T04:17:33.940Z,1003.25
2017-09-04T04:18:33.958Z,1003.26
2017-09-04T04:19:33.977Z,1003.28
2017-09-04T04:20:33.995Z,1003.27
2017-09-04T04:21:34.014Z,1003.25
2017-09-04T04:22:34.035Z,1003.24
2017-09-04T04:23:34.052Z,1003.3
2017-09-04T04:24:34.069Z,1003.28
2017-09-04T04:25:34.088Z,1003.27
2017-09-04T04:26:34.106Z,1003.27
2017-09-04T04:27:34.125Z,1003.28
2017-09-04T04:28:34.147Z,1003.29
2017-09-04T04:29:34.162Z,1003.28
2017-09-04T04:30:34.182Z,1003.29
2017-09-04T04:31:34.200Z,1003.25
2017-09-04T04:32:34.219Z,1003.28
2017-09-04T04:33:34.237Z,1003.26
2017-09-04T04:34:34.256Z,1003.29
2017-09-04T04:35:34.273Z,1003.28
2017-09-04T04:36:34.292Z,1003.29
2017-09-04T04:37:34.311Z,1003.26
2017-09-04T04:38:34.329Z,1003.29
2017-09-04T04:39:34.348Z,1003.29
2017-09-04T04:40:34.368Z,1003.29
2017-09-04T04:41:34.385Z,1003.32
2017-09-04T04:42:34.403Z,1003.28
2017-09-04T04:43:34.422Z,1003.27
2017-09-04T04:44:34.443Z,1003.35
2017-09-04T04:45:34.459Z,1003.34
2017-09-04T04:46:34.477Z,1003.32
2017-09-04T04:47:34.496Z,1003.35
2017-09-04T04:48:34.516Z,1003.38
2017-09-04T04:49:34.533Z,1003.3
2017-09-04T04:50:34.550Z,1003.35
2017-09-04T04:51:34.570Z,1003.35
2017-09-04T04:52:34.589Z,1003.34
2017-09-04T04:53:34.609Z,1003.33
2017-09-04T04:54:34.626Z,1003.31
2017-09-04T04:55:34.643Z,1003.29
2017-09-04T04:56:34.662Z,1003.28
2017-09-04T04:57:34.680Z,1003.29
2017-09-04T04:58:34.699Z,1003.31
2017-09-04T04:59:34.718Z,1003.32
2017-09-04T05:00:34.736Z,1003.3
2017-09-04T05:01:34.754Z,1003.26
2017-09-04T05:02:34.773Z,1003.27
2017-09-04T05:03:34.896Z,1003.26
2017-09-04T05:04:34.809Z,1003.25
2017-09-04T05:05:34.828Z,1003.23
2017-09-04T05:06:34.847Z,1003.22
2017-09-04T05:07:34.865Z,1003.27
2017-09-04T05:08:34.882Z,1003.23
2017-09-04T05:09:34.905Z,1003.23
2017-09-04T05:10:34.920Z,1003.27
2017-09-04T05:11:34.942Z,1003.19
2017-09-04T05:12:34.958Z,1003.19
2017-09-04T05:13:34.977Z,1003.21
2017-09-04T05:14:34.994Z,1003.23
2017-09-04T05:15:35.012Z,1003.23
2017-09-04T05:16:35.031Z,1003.18
2017-09-04T05:17:35.050Z,1003.18
2017-09-04T05:18:35.069Z,1003.15
2017-09-04T05:19:35.085Z,1003.18
2017-09-04T05:20:35.104Z,1003.17
2017-09-04T05:21:35.122Z,1003.17
2017-09-04T05:22:35.141Z,1003.15
2017-09-04T05:23:35.160Z,1003.19
2017-09-04T05:24:35.190Z,1003.19
2017-09-04T05:25:35.197Z,1003.18
2017-09-04T05:26:35.215Z,1003.17
2017-09-04T05:27:35.233Z,1003.15
2017-09-04T05:28:35.251Z,1003.16
2017-09-04T05:29:35.269Z,1003.15
2017-09-04T05:30:35.287Z,1003.21
2017-09-04T05:31:35.306Z,1003.18
2017-09-04T05:32:35.325Z,1003.17
2017-09-04T05:33:35.342Z,1003.21
2017-09-04T05:34:35.363Z,1003.21
2017-09-04T05:35:35.378Z,1003.2
2017-09-04T05:36:35.400Z,1003.22
2017-09-04T05:37:35.417Z,1003.18
2017-09-04T05:38:35.435Z,1003.22
2017-09-04T05:39:35.453Z,1003.22
2017-09-04T05:40:35.472Z,1003.21
2017-09-04T05:41:35.490Z,1003.24
2017-09-04T05:42:35.510Z,1003.19
2017-09-04T05:43:35.528Z,1003.21
2017-09-04T05:44:35.544Z,1003.21
2017-09-04T05:45:35.568Z,1003.2
2017-09-04T05:46:35.582Z,1003.22
2017-09-04T05:47:35.600Z,1003.21
2017-09-04T05:48:35.619Z,1003.22
2017-09-04T05:49:35.637Z,1003.23
2017-09-04T05:50:35.656Z,1003.25
2017-09-04T05:51:35.674Z,1003.27
2017-09-04T05:52:35.693Z,1003.24
2017-09-04T05:53:35.712Z,1003.26
2017-09-04T05:54:35.732Z,1003.3
2017-09-04T05:55:35.748Z,1003.25
2017-09-04T05:56:35.767Z,1003.25
2017-09-04T05:57:35.785Z,1003.28
2017-09-04T05:58:35.804Z,1003.28
2017-09-04T05:59:35.821Z,1003.3
2017-09-04T06:00:35.840Z,1003.28
2017-09-04T06:01:35.859Z,1003.26
2017-09-04T06:02:35.876Z,1003.31
2017-09-04T06:03:35.896Z,1003.33
2017-09-04T06:04:35.916Z,1003.31
2017-09-04T06:05:35.933Z,1003.35
2017-09-04T06:06:35.957Z,1003.37
2017-09-04T06:07:35.970Z,1003.36
2017-09-04T06:08:35.988Z,1003.34
2017-09-04T06:09:36.006Z,1003.35
2017-09-04T06:10:36.023Z,1003.36
2017-09-04T06:11:36.042Z,1003.37
2017-09-04T06:12:36.062Z,1003.37
2017-09-04T06:13:36.085Z,1003.38
2017-09-04T06:14:36.098Z,1003.36
2017-09-04T06:15:36.116Z,1003.42
2017-09-04T06:16:36.134Z,1003.43
2017-09-04T06:17:36.154Z,1003.42
2017-09-04T06:18:36.172Z,1003.41
2017-09-04T06:19:36.190Z,1003.41
2017-09-04T06:20:36.209Z,1003.42
2017-09-04T06:21:36.226Z,1003.43
2017-09-04T06:22:36.245Z,1003.41
2017-09-04T06:23:36.263Z,1003.38
2017-09-04T06:24:36.281Z,1003.42
2017-09-04T06:25:36.301Z,1003.39
2017-09-04T06:26:36.317Z,1003.38
2017-09-04T06:27:36.338Z,1003.4
2017-09-04T06:28:36.358Z,1003.39
2017-09-04T06:29:36.374Z,1003.37
2017-09-04T06:30:36.392Z,1003.38
2017-09-04T06:31:36.416Z,1003.36
2017-09-04T06:32:36.429Z,1003.37
2017-09-04T06:33:36.448Z,1003.37
2017-09-04T06:34:36.466Z,1003.38
2017-09-04T06:35:36.484Z,1003.39
2017-09-04T06:36:36.503Z,1003.41
2017-09-04T06:37:36.520Z,1003.41
2017-09-04T06:38:36.546Z,1003.45
2017-09-04T06:39:36.558Z,1003.43
2017-09-04T06:40:36.577Z,1003.5
2017-09-04T06:41:36.595Z,1003.49
2017-09-04T06:42:36.614Z,1003.5
2017-09-04T06:43:36.632Z,1003.52
2017-09-04T06:44:36.652Z,1003.5
2017-09-04T06:45:36.674Z,1003.53
2017-09-04T06:46:36.689Z,1003.51
2017-09-04T06:47:36.707Z,1003.52
2017-09-04T06:48:36.725Z,1003.54
2017-09-04T06:49:36.742Z,1003.55
2017-09-04T06:50:36.761Z,1003.54
2017-09-04T06:51:36.783Z,1003.55
2017-09-04T06:52:36.800Z,1003.55
2017-09-04T06:53:36.820Z,1003.55
2017-09-04T06:54:36.836Z,1003.59
2017-09-04T06:55:36.856Z,1003.59
2017-09-04T06:56:36.873Z,1003.57
2017-09-04T06:57:36.891Z,1003.59
2017-09-04T06:58:36.910Z,1003.63
2017-09-04T06:59:36.930Z,1003.63
2017-09-04T07:00:36.949Z,1003.61
2017-09-04T07:01:36.968Z,1003.62
2017-09-04T07:02:36.985Z,1003.63
2017-09-04T07:03:37.003Z,1003.64
2017-09-04T07:04:37.022Z,1003.62
2017-09-04T07:05:37.039Z,1003.67
2017-09-04T07:06:37.059Z,1003.66
2017-09-04T07:07:37.079Z,1003.68
2017-09-04T07:08:37.096Z,1003.68
2017-09-04T07:09:37.116Z,1003.71
2017-09-04T07:10:37.134Z,1003.7
2017-09-04T07:11:37.154Z,1003.71
2017-09-04T07:12:37.174Z,1003.74
2017-09-04T07:13:37.192Z,1003.75
2017-09-04T07:14:37.209Z,1003.78
2017-09-04T07:15:37.228Z,1003.83
2017-09-04T07:16:37.248Z,1003.83
2017-09-04T07:17:37.265Z,1003.85
2017-09-04T07:18:37.285Z,1003.88
2017-09-04T07:19:37.302Z,1003.89
2017-09-04T07:20:37.322Z,1003.91
2017-09-04T07:21:37.343Z,1003.91
2017-09-04T07:22:37.361Z,1003.93
2017-09-04T07:23:37.380Z,1003.91
2017-09-04T07:24:37.398Z,1003.97
2017-09-04T07:25:37.417Z,1003.93
2017-09-04T07:26:37.437Z,1003.99
2017-09-04T07:27:37.455Z,1003.98
2017-09-04T07:28:37.476Z,1003.98
2017-09-04T07:29:37.493Z,1003.99
2017-09-04T07:30:37.512Z,1003.95
2017-09-04T07:31:37.756Z,1004.01
2017-09-04T07:32:37.550Z,1004.01
2017-09-04T07:33:37.578Z,1004.01
2017-09-04T07:34:37.590Z,1004.04
2017-09-04T07:35:37.607Z,1004.03
2017-09-04T07:36:37.629Z,1004.05
2017-09-04T07:37:37.645Z,1004.01
2017-09-04T07:38:37.667Z,1004.05
2017-09-04T07:39:37.684Z,1004.05
2017-09-04T07:40:37.705Z,1004.07
2017-09-04T07:41:37.724Z,1004.12
2017-09-04T07:42:37.741Z,1004.11
2017-09-04T07:43:37.761Z,1004.14
2017-09-04T07:44:37.781Z,1004.17
2017-09-04T07:45:37.799Z,1004.13
2017-09-04T07:46:37.818Z,1004.15
2017-09-04T07:47:37.838Z,1004.14
2017-09-04T07:48:37.861Z,1004.12
2017-09-04T07:49:37.874Z,1004.18
2017-09-04T07:50:37.896Z,1004.18
2017-09-04T07:51:37.916Z,1004.15
2017-09-04T07:52:37.949Z,1004.21
2017-09-04T07:53:37.954Z,1004.21
2017-09-04T07:54:37.972Z,1004.24
2017-09-04T07:55:37.993Z,1004.21
2017-09-04T07:56:38.013Z,1004.22
2017-09-04T07:57:38.037Z,1004.19
2017-09-04T07:58:38.051Z,1004.23
2017-09-04T07:59:38.072Z,1004.22
2017-09-04T08:00:38.090Z,1004.22
2017-09-04T08:01:38.109Z,1004.2
2017-09-04T08:02:38.130Z,1004.22
2017-09-04T08:03:38.151Z,1004.26
2017-09-04T08:04:38.168Z,1004.27
2017-09-04T08:05:38.188Z,1004.29
2017-09-04T08:06:38.208Z,1004.29
2017-09-04T08:07:38.226Z,1004.29
2017-09-04T08:08:38.247Z,1004.28
2017-09-04T08:09:38.267Z,1004.31
2017-09-04T08:10:38.287Z,1004.29
2017-09-04T08:11:38.305Z,1004.29
2017-09-04T08:12:38.325Z,1004.29
2017-09-04T08:13:38.345Z,1004.33
2017-09-04T08:14:38.366Z,1004.29
2017-09-04T08:15:38.386Z,1004.29
2017-09-04T08:16:38.404Z,1004.28
2017-09-04T08:17:38.425Z,1004.27
2017-09-04T08:18:38.444Z,1004.25
2017-09-04T08:19:38.464Z,1004.3
2017-09-04T08:20:38.485Z,1004.26
2017-09-04T08:21:38.504Z,1004.34
2017-09-04T08:22:38.525Z,1004.34
2017-09-04T08:23:38.544Z,1004.31
2017-09-04T08:24:38.564Z,1004.3
2017-09-04T08:25:38.584Z,1004.34
2017-09-04T08:26:38.603Z,1004.31
2017-09-04T08:27:38.625Z,1004.35
2017-09-04T08:28:38.645Z,1004.32
2017-09-04T08:29:38.664Z,1004.33
2017-09-04T08:30:38.685Z,1004.36
2017-09-04T08:31:38.706Z,1004.36
2017-09-04T08:32:38.725Z,1004.33
2017-09-04T08:33:38.747Z,1004.34
2017-09-04T08:34:38.765Z,1004.31
2017-09-04T08:35:38.785Z,1004.37
2017-09-04T08:36:38.806Z,1004.32
2017-09-04T08:37:38.826Z,1004.39
2017-09-04T08:38:38.847Z,1004.38
2017-09-04T08:39:38.867Z,1004.4
2017-09-04T08:40:38.887Z,1004.38
2017-09-04T08:41:38.927Z,1004.4
2017-09-04T08:42:38.931Z,1004.4
2017-09-04T08:43:38.958Z,1004.43
2017-09-04T08:44:38.974Z,1004.43
2017-09-04T08:45:38.990Z,1004.43
2017-09-04T08:46:39.013Z,1004.44
2017-09-04T08:47:39.029Z,1004.43
2017-09-04T08:48:39.050Z,1004.43
2017-09-04T08:49:39.071Z,1004.42
2017-09-04T08:50:39.093Z,1004.45
2017-09-04T08:51:39.112Z,1004.44
2017-09-04T08:52:39.133Z,1004.43
2017-09-04T08:53:39.154Z,1004.47
2017-09-04T08:54:39.176Z,1004.48
2017-09-04T08:55:39.194Z,1004.47
2017-09-04T08:56:39.217Z,1004.5
2017-09-04T08:57:39.237Z,1004.47
2017-09-04T08:58:39.257Z,1004.45
2017-09-04T08:59:39.278Z,1004.47
2017-09-04T09:00:39.299Z,1004.47
2017-09-04T09:01:39.321Z,1004.5
2017-09-04T09:02:39.342Z,1004.51
2017-09-04T09:03:39.364Z,1004.53
2017-09-04T09:04:39.385Z,1004.54
2017-09-04T09:05:39.404Z,1004.51
2017-09-04T09:06:39.430Z,1004.53
2017-09-04T09:07:39.447Z,1004.59
2017-09-04T09:08:39.468Z,1004.58
2017-09-04T09:09:39.489Z,1004.54
2017-09-04T09:10:39.511Z,1004.56
2017-09-04T09:11:39.532Z,1004.59
2017-09-04T09:12:39.553Z,1004.53
2017-09-04T09:13:39.574Z,1004.58
2017-09-04T09:14:39.596Z,1004.55
2017-09-04T09:15:39.618Z,1004.56
2017-09-04T09:16:39.637Z,1004.57
2017-09-04T09:17:39.659Z,1004.6
2017-09-04T09:18:39.680Z,1004.59
2017-09-04T09:19:39.704Z,1004.59
2017-09-04T09:20:39.724Z,1004.57
2017-09-04T09:21:39.746Z,1004.54
2017-09-04T09:22:39.769Z,1004.57
2017-09-04T09:23:39.788Z,1004.58
2017-09-04T09:24:39.809Z,1004.58
2017-09-04T09:25:39.832Z,1004.56
2017-09-04T09:26:39.854Z,1004.58
2017-09-04T09:27:39.874Z,1004.6
2017-09-04T09:28:39.897Z,1004.55
2017-09-04T09:29:39.917Z,1004.55
2017-09-04T09:30:39.939Z,1004.54
2017-09-04T09:31:39.960Z,1004.6
2017-09-04T09:32:39.983Z,1004.54
2017-09-04T09:33:40.005Z,1004.57
2017-09-04T09:34:40.026Z,1004.56
2017-09-04T09:35:40.049Z,1004.58
2017-09-04T09:36:40.070Z,1004.55
2017-09-04T09:37:40.093Z,1004.58
2017-09-04T09:38:40.112Z,1004.56
2017-09-04T09:39:40.135Z,1004.57
2017-09-04T09:40:40.160Z,1004.61
2017-09-04T09:41:40.180Z,1004.61
2017-09-04T09:42:40.201Z,1004.62
2017-09-04T09:43:40.223Z,1004.6
2017-09-04T09:44:40.247Z,1004.64
2017-09-04T09:45:40.267Z,1004.64
2017-09-04T09:46:40.298Z,1004.64
2017-09-04T09:47:40.312Z,1004.62
2017-09-04T09:48:40.334Z,1004.61
2017-09-04T09:49:40.356Z,1004.61
2017-09-04T09:50:40.378Z,1004.59
2017-09-04T09:51:40.401Z,1004.58
2017-09-04T09:52:40.424Z,1004.59
2017-09-04T09:53:40.445Z,1004.59
2017-09-04T09:54:40.470Z,1004.6
2017-09-04T09:55:40.490Z,1004.62
2017-09-04T09:56:40.514Z,1004.6
2017-09-04T09:57:40.536Z,1004.61
2017-09-04T09:58:40.560Z,1004.59
2017-09-04T09:59:40.711Z,1004.58
2017-09-04T10:00:40.603Z,1004.57
2017-09-04T10:01:40.627Z,1004.57
2017-09-04T10:02:40.649Z,1004.55
2017-09-04T10:03:40.671Z,1004.53
2017-09-04T10:04:40.698Z,1004.56
2017-09-04T10:05:40.716Z,1004.6
2017-09-04T10:06:40.738Z,1004.59
2017-09-04T10:07:40.761Z,1004.52
2017-09-04T10:08:40.784Z,1004.47
2017-09-04T10:09:40.806Z,1004.51
2017-09-04T10:10:40.864Z,1004.49
2017-09-04T10:11:40.852Z,1004.48
2017-09-04T10:12:40.875Z,1004.51
2017-09-04T10:13:40.899Z,1004.51
2017-09-04T10:14:40.923Z,1004.47
2017-09-04T10:15:40.945Z,1004.52
2017-09-04T10:16:40.967Z,1004.5
2017-09-04T10:17:40.992Z,1004.5
2017-09-04T10:18:41.014Z,1004.49
2017-09-04T10:19:41.035Z,1004.5
2017-09-04T10:20:41.062Z,1004.5
2017-09-04T10:21:41.084Z,1004.48
2017-09-04T10:22:41.107Z,1004.45
2017-09-04T10:23:41.136Z,1004.47
2017-09-04T10:24:41.153Z,1004.44
2017-09-04T10:25:41.178Z,1004.46
2017-09-04T10:26:41.203Z,1004.46
2017-09-04T10:27:41.223Z,1004.52
2017-09-04T10:28:41.248Z,1004.45
2017-09-04T10:29:41.270Z,1004.5
2017-09-04T10:30:41.294Z,1004.47
2017-09-04T10:31:41.318Z,1004.47
2017-09-04T10:32:41.342Z,1004.44
2017-09-04T10:33:41.399Z,1004.47
2017-09-04T10:34:41.387Z,1004.46
2017-09-04T10:35:41.413Z,1004.43
2017-09-04T10:36:41.435Z,1004.45
2017-09-04T10:37:41.465Z,1004.46
2017-09-04T10:38:41.483Z,1004.39
2017-09-04T10:39:41.507Z,1004.39
2017-09-04T10:40:41.531Z,1004.46
2017-09-04T10:41:41.555Z,1004.43
2017-09-04T10:42:41.579Z,1004.45
2017-09-04T10:43:41.604Z,1004.43
2017-09-04T10:44:41.627Z,1004.44
2017-09-04T10:45:41.650Z,1004.42
2017-09-04T10:46:41.675Z,1004.42
2017-09-04T10:47:41.698Z,1004.4
2017-09-04T10:48:41.722Z,1004.41
2017-09-04T10:49:41.746Z,1004.48
2017-09-04T10:50:41.771Z,1004.44
2017-09-04T10:51:41.794Z,1004.41
2017-09-04T10:52:41.824Z,1004.44
2017-09-04T10:53:41.846Z,1004.46
2017-09-04T10:54:41.869Z,1004.45
2017-09-04T10:55:41.892Z,1004.46
2017-09-04T10:56:41.918Z,1004.45
2017-09-04T10:57:41.942Z,1004.43
2017-09-04T10:58:41.965Z,1004.43
2017-09-04T10:59:42.188Z,1004.41
2017-09-04T11:00:42.014Z,1004.42
2017-09-04T11:01:42.041Z,1004.48
2017-09-04T11:02:42.065Z,1004.43
2017-09-04T11:03:42.090Z,1004.45
2017-09-04T11:04:42.112Z,1004.43
2017-09-04T11:05:42.138Z,1004.46
2017-09-04T11:06:42.161Z,1004.47
2017-09-04T11:07:42.186Z,1004.45
2017-09-04T11:08:42.211Z,1004.47
2017-09-04T11:09:42.235Z,1004.46
2017-09-04T11:10:42.260Z,1004.46
2017-09-04T11:11:42.285Z,1004.5
2017-09-04T11:12:42.311Z,1004.46
2017-09-04T11:13:42.335Z,1004.49
2017-09-04T11:14:42.360Z,1004.48
2017-09-04T11:15:42.385Z,1004.5
2017-09-04T11:16:42.411Z,1004.56
2017-09-04T11:17:42.438Z,1004.5
2017-09-04T11:18:42.461Z,1004.53
2017-09-04T11:19:42.485Z,1004.56
2017-09-04T11:20:42.509Z,1004.55
2017-09-04T11:21:42.536Z,1004.59
2017-09-04T11:22:42.561Z,1004.53
2017-09-04T11:23:42.586Z,1004.57
2017-09-04T11:24:42.610Z,1004.54
2017-09-04T11:25:42.636Z,1004.54
2017-09-04T11:26:42.661Z,1004.55
2017-09-04T11:27:42.687Z,1004.56
2017-09-04T11:28:42.711Z,1004.56
2017-09-04T11:29:42.737Z,1004.57
2017-09-04T11:30:42.762Z,1004.55
2017-09-04T11:31:42.788Z,1004.59
2017-09-04T11:32:42.812Z,1004.57
2017-09-04T11:33:42.839Z,1004.59
2017-09-04T11:34:42.867Z,1004.57
2017-09-04T11:35:42.889Z,1004.63
2017-09-04T11:36:42.915Z,1004.59
2017-09-04T11:37:42.940Z,1004.49
2017-09-04T11:38:42.966Z,1004.47
2017-09-04T11:39:42.991Z,1004.46
2017-09-04T11:40:43.018Z,1004.47
2017-09-04T11:41:43.044Z,1004.44
2017-09-04T11:42:43.068Z,1004.43
2017-09-04T11:43:43.094Z,1004.47
2017-09-04T11:44:43.120Z,1004.44
2017-09-04T11:45:43.350Z,1004.46
2017-09-04T11:46:43.172Z,1004.46
2017-09-04T11:47:43.199Z,1004.44
2017-09-04T11:48:43.224Z,1004.5
2017-09-04T11:49:43.251Z,1004.48
2017-09-04T11:50:43.278Z,1004.47
2017-09-04T11:51:43.302Z,1004.51
2017-09-04T11:52:43.328Z,1004.46
2017-09-04T11:53:43.364Z,1004.44
2017-09-04T11:54:43.382Z,1004.46
2017-09-04T11:55:43.407Z,1004.48
2017-09-04T11:56:43.433Z,1004.47
2017-09-04T11:57:43.460Z,1004.47
2017-09-04T11:58:43.487Z,1004.47
2017-09-04T11:59:43.538Z,1004.49
2017-09-04T12:00:43.538Z,1004.49
2017-09-04T12:01:43.564Z,1004.49
2017-09-04T12:02:43.590Z,1004.52
2017-09-04T12:03:43.618Z,1004.52
2017-09-04T12:04:43.642Z,1004.51
2017-09-04T12:05:43.671Z,1004.52
2017-09-04T12:06:43.697Z,1004.51
2017-09-04T12:07:43.723Z,1004.51